sensor_id;sensor_type;location;lat;lon;timestamp;temperature;humidity
27671;DHT22;15077;49.704;9.908;2024-03-02T00:02:14;10.60;64.20
27671;DHT22;15077;49.704;9.908;2024-03-02T00:04:40;10.50;64.60
27671;DHT22;15077;49.704;9.908;2024-03-02T00:07:06;10.50;64.20
27671;DHT22;15077;49.704;9.908;2024-03-02T00:09:34;10.50;64.20
27671;DHT22;15077;49.704;9.908;2024-03-02T00:12:01;10.50;64.20
27671;DHT22;15077;49.704;9.908;2024-03-02T00:14:29;10.50;64.20
27671;DHT22;15077;49.704;9.908;2024-03-02T00:16:59;10.50;64.30
27671;DHT22;15077;49.704;9.908;2024-03-02T00:19:26;10.40;64.30
27671;DHT22;15077;49.704;9.908;2024-03-02T00:21:52;10.40;64.30
27671;DHT22;15077;49.704;9.908;2024-03-02T00:26:45;10.40;64.40
27671;DHT22;15077;49.704;9.908;2024-03-02T00:29:11;10.40;64.40
27671;DHT22;15077;49.704;9.908;2024-03-02T00:31:45;10.40;64.40
27671;DHT22;15077;49.704;9.908;2024-03-02T00:34:12;10.40;64.50
27671;DHT22;15077;49.704;9.908;2024-03-02T00:36:41;10.40;64.50
27671;DHT22;15077;49.704;9.908;2024-03-02T00:39:10;10.30;64.50
27671;DHT22;15077;49.704;9.908;2024-03-02T00:41:38;10.40;64.70
27671;DHT22;15077;49.704;9.908;2024-03-02T00:44:07;10.40;64.70
27671;DHT22;15077;49.704;9.908;2024-03-02T00:46:40;10.40;64.70
27671;DHT22;15077;49.704;9.908;2024-03-02T00:49:18;10.30;64.70
27671;DHT22;15077;49.704;9.908;2024-03-02T00:51:48;10.40;64.70
27671;DHT22;15077;49.704;9.908;2024-03-02T00:54:21;10.40;64.70
27671;DHT22;15077;49.704;9.908;2024-03-02T00:56:49;10.40;64.70
27671;DHT22;15077;49.704;9.908;2024-03-02T00:59:17;10.30;64.70
27671;DHT22;15077;49.704;9.908;2024-03-02T01:01:43;10.40;64.80
27671;DHT22;15077;49.704;9.908;2024-03-02T01:04:09;10.40;65.00
27671;DHT22;15077;49.704;9.908;2024-03-02T01:06:35;10.40;65.20
27671;DHT22;15077;49.704;9.908;2024-03-02T01:09:01;10.40;65.20
27671;DHT22;15077;49.704;9.908;2024-03-02T01:11:28;10.40;65.20
27671;DHT22;15077;49.704;9.908;2024-03-02T01:13:53;10.40;65.10
27671;DHT22;15077;49.704;9.908;2024-03-02T01:16:19;10.40;65.10
27671;DHT22;15077;49.704;9.908;2024-03-02T01:18:45;10.30;64.90
27671;DHT22;15077;49.704;9.908;2024-03-02T01:21:11;10.40;64.90
27671;DHT22;15077;49.704;9.908;2024-03-02T01:23:36;10.30;64.80
27671;DHT22;15077;49.704;9.908;2024-03-02T01:26:03;10.30;64.70
27671;DHT22;15077;49.704;9.908;2024-03-02T01:28:28;10.30;64.70
27671;DHT22;15077;49.704;9.908;2024-03-02T01:30:54;10.30;64.70
27671;DHT22;15077;49.704;9.908;2024-03-02T01:33:20;10.30;64.70
27671;DHT22;15077;49.704;9.908;2024-03-02T01:35:46;10.30;64.80
27671;DHT22;15077;49.704;9.908;2024-03-02T01:38:12;10.30;64.70
27671;DHT22;15077;49.704;9.908;2024-03-02T01:40:38;10.30;64.70
27671;DHT22;15077;49.704;9.908;2024-03-02T01:43:05;10.30;64.70
27671;DHT22;15077;49.704;9.908;2024-03-02T01:45:31;10.30;64.70
27671;DHT22;15077;49.704;9.908;2024-03-02T01:47:57;10.30;64.70
27671;DHT22;15077;49.704;9.908;2024-03-02T01:50:27;10.20;64.60
27671;DHT22;15077;49.704;9.908;2024-03-02T01:52:54;10.20;64.60
27671;DHT22;15077;49.704;9.908;2024-03-02T01:55:21;10.20;64.60
27671;DHT22;15077;49.704;9.908;2024-03-02T01:57:47;10.20;64.70
27671;DHT22;15077;49.704;9.908;2024-03-02T02:00:13;10.20;64.70
27671;DHT22;15077;49.704;9.908;2024-03-02T02:02:39;10.20;64.70
27671;DHT22;15077;49.704;9.908;2024-03-02T02:05:05;10.20;64.70
27671;DHT22;15077;49.704;9.908;2024-03-02T02:07:32;10.10;64.70
27671;DHT22;15077;49.704;9.908;2024-03-02T02:10:00;10.10;64.70
27671;DHT22;15077;49.704;9.908;2024-03-02T02:12:27;10.10;64.70
27671;DHT22;15077;49.704;9.908;2024-03-02T02:14:53;10.10;64.70
27671;DHT22;15077;49.704;9.908;2024-03-02T02:17:20;10.10;64.70
27671;DHT22;15077;49.704;9.908;2024-03-02T02:19:47;10.10;64.70
27671;DHT22;15077;49.704;9.908;2024-03-02T02:22:13;10.10;64.70
27671;DHT22;15077;49.704;9.908;2024-03-02T02:24:41;10.10;64.70
27671;DHT22;15077;49.704;9.908;2024-03-02T02:27:10;10.10;64.80
27671;DHT22;15077;49.704;9.908;2024-03-02T02:29:38;10.10;64.80
27671;DHT22;15077;49.704;9.908;2024-03-02T02:32:03;10.10;64.80
27671;DHT22;15077;49.704;9.908;2024-03-02T02:34:29;10.00;64.70
27671;DHT22;15077;49.704;9.908;2024-03-02T02:36:55;10.00;64.80
27671;DHT22;15077;49.704;9.908;2024-03-02T02:39:21;10.00;64.70
27671;DHT22;15077;49.704;9.908;2024-03-02T02:41:50;10.00;64.80
27671;DHT22;15077;49.704;9.908;2024-03-02T02:44:16;10.00;64.80
27671;DHT22;15077;49.704;9.908;2024-03-02T02:46:41;10.00;64.80
27671;DHT22;15077;49.704;9.908;2024-03-02T02:49:07;9.90;64.80
27671;DHT22;15077;49.704;9.908;2024-03-02T02:51:33;9.90;64.80
27671;DHT22;15077;49.704;9.908;2024-03-02T02:53:58;9.90;64.80
27671;DHT22;15077;49.704;9.908;2024-03-02T02:56:24;9.90;64.80
27671;DHT22;15077;49.704;9.908;2024-03-02T02:58:50;9.90;65.00
27671;DHT22;15077;49.704;9.908;2024-03-02T03:01:16;9.80;64.90
27671;DHT22;15077;49.704;9.908;2024-03-02T03:03:45;9.80;65.00
27671;DHT22;15077;49.704;9.908;2024-03-02T03:06:11;9.80;65.00
27671;DHT22;15077;49.704;9.908;2024-03-02T03:08:37;9.70;65.00
27671;DHT22;15077;49.704;9.908;2024-03-02T03:11:03;9.70;65.10
27671;DHT22;15077;49.704;9.908;2024-03-02T03:13:30;9.70;65.30
27671;DHT22;15077;49.704;9.908;2024-03-02T03:15:56;9.70;65.30
27671;DHT22;15077;49.704;9.908;2024-03-02T03:18:22;9.70;65.30
27671;DHT22;15077;49.704;9.908;2024-03-02T03:20:47;9.70;65.20
27671;DHT22;15077;49.704;9.908;2024-03-02T03:23:13;9.70;65.20
27671;DHT22;15077;49.704;9.908;2024-03-02T03:25:42;9.70;65.30
27671;DHT22;15077;49.704;9.908;2024-03-02T03:28:08;9.70;65.30
27671;DHT22;15077;49.704;9.908;2024-03-02T03:30:37;9.70;65.20
27671;DHT22;15077;49.704;9.908;2024-03-02T03:33:04;9.70;65.10
27671;DHT22;15077;49.704;9.908;2024-03-02T03:35:34;9.60;65.70
27671;DHT22;15077;49.704;9.908;2024-03-02T03:38:00;9.60;65.10
27671;DHT22;15077;49.704;9.908;2024-03-02T03:40:26;9.60;65.30
27671;DHT22;15077;49.704;9.908;2024-03-02T03:42:51;9.60;65.30
27671;DHT22;15077;49.704;9.908;2024-03-02T03:45:17;9.60;65.30
27671;DHT22;15077;49.704;9.908;2024-03-02T03:47:43;9.60;65.40
27671;DHT22;15077;49.704;9.908;2024-03-02T03:50:08;9.50;66.00
27671;DHT22;15077;49.704;9.908;2024-03-02T03:52:34;9.50;65.70
27671;DHT22;15077;49.704;9.908;2024-03-02T03:55:00;9.50;65.70
27671;DHT22;15077;49.704;9.908;2024-03-02T03:57:26;9.50;65.80
27671;DHT22;15077;49.704;9.908;2024-03-02T03:59:52;9.40;65.90
27671;DHT22;15077;49.704;9.908;2024-03-02T04:02:19;9.40;66.10
27671;DHT22;15077;49.704;9.908;2024-03-02T04:04:44;9.40;66.50
27671;DHT22;15077;49.704;9.908;2024-03-02T04:07:10;9.40;66.80
27671;DHT22;15077;49.704;9.908;2024-03-02T04:09:36;9.40;67.00
27671;DHT22;15077;49.704;9.908;2024-03-02T04:12:01;9.30;67.30
27671;DHT22;15077;49.704;9.908;2024-03-02T04:14:27;9.30;67.40
27671;DHT22;15077;49.704;9.908;2024-03-02T04:16:53;9.30;67.50
27671;DHT22;15077;49.704;9.908;2024-03-02T04:19:18;9.30;67.70
27671;DHT22;15077;49.704;9.908;2024-03-02T04:21:46;9.30;68.10
27671;DHT22;15077;49.704;9.908;2024-03-02T04:24:11;9.20;68.10
27671;DHT22;15077;49.704;9.908;2024-03-02T04:26:37;9.20;68.30
27671;DHT22;15077;49.704;9.908;2024-03-02T04:29:03;9.20;68.30
27671;DHT22;15077;49.704;9.908;2024-03-02T04:31:28;9.20;68.20
27671;DHT22;15077;49.704;9.908;2024-03-02T04:33:54;9.20;68.00
27671;DHT22;15077;49.704;9.908;2024-03-02T04:36:19;9.20;68.10
27671;DHT22;15077;49.704;9.908;2024-03-02T04:38:46;9.20;68.10
27671;DHT22;15077;49.704;9.908;2024-03-02T04:41:12;9.10;68.30
27671;DHT22;15077;49.704;9.908;2024-03-02T04:43:37;9.20;68.10
27671;DHT22;15077;49.704;9.908;2024-03-02T04:46:03;9.20;68.50
27671;DHT22;15077;49.704;9.908;2024-03-02T04:48:30;9.10;68.20
27671;DHT22;15077;49.704;9.908;2024-03-02T04:50:56;9.10;68.30
27671;DHT22;15077;49.704;9.908;2024-03-02T04:53:22;9.10;68.20
27671;DHT22;15077;49.704;9.908;2024-03-02T04:55:47;9.10;68.10
27671;DHT22;15077;49.704;9.908;2024-03-02T04:58:19;9.10;68.00
27671;DHT22;15077;49.704;9.908;2024-03-02T05:00:44;9.10;67.80
27671;DHT22;15077;49.704;9.908;2024-03-02T05:03:12;9.10;67.80
27671;DHT22;15077;49.704;9.908;2024-03-02T05:05:38;9.10;67.70
27671;DHT22;15077;49.704;9.908;2024-03-02T05:08:04;9.10;67.60
27671;DHT22;15077;49.704;9.908;2024-03-02T05:10:29;9.10;67.60
27671;DHT22;15077;49.704;9.908;2024-03-02T05:12:55;9.10;67.60
27671;DHT22;15077;49.704;9.908;2024-03-02T05:15:24;9.00;67.70
27671;DHT22;15077;49.704;9.908;2024-03-02T05:17:50;9.00;67.60
27671;DHT22;15077;49.704;9.908;2024-03-02T05:20:16;9.10;67.50
27671;DHT22;15077;49.704;9.908;2024-03-02T05:22:42;9.00;67.50
27671;DHT22;15077;49.704;9.908;2024-03-02T05:25:08;9.00;67.50
27671;DHT22;15077;49.704;9.908;2024-03-02T05:27:37;9.00;67.40
27671;DHT22;15077;49.704;9.908;2024-03-02T05:30:02;9.00;67.50
27671;DHT22;15077;49.704;9.908;2024-03-02T05:32:28;9.00;67.50
27671;DHT22;15077;49.704;9.908;2024-03-02T05:34:54;9.00;67.40
27671;DHT22;15077;49.704;9.908;2024-03-02T05:37:20;9.00;67.30
27671;DHT22;15077;49.704;9.908;2024-03-02T05:39:46;9.00;67.30
27671;DHT22;15077;49.704;9.908;2024-03-02T05:42:11;9.00;67.30
27671;DHT22;15077;49.704;9.908;2024-03-02T05:44:37;9.00;67.30
27671;DHT22;15077;49.704;9.908;2024-03-02T05:47:02;9.00;67.30
27671;DHT22;15077;49.704;9.908;2024-03-02T05:49:29;9.00;67.30
27671;DHT22;15077;49.704;9.908;2024-03-02T05:51:55;9.00;67.30
27671;DHT22;15077;49.704;9.908;2024-03-02T05:54:20;9.00;67.40
27671;DHT22;15077;49.704;9.908;2024-03-02T05:56:46;8.90;67.40
27671;DHT22;15077;49.704;9.908;2024-03-02T05:59:11;8.90;67.40
27671;DHT22;15077;49.704;9.908;2024-03-02T06:01:42;8.90;67.40
27671;DHT22;15077;49.704;9.908;2024-03-02T06:04:09;8.90;67.30
27671;DHT22;15077;49.704;9.908;2024-03-02T06:06:36;8.90;67.30
27671;DHT22;15077;49.704;9.908;2024-03-02T06:09:02;8.90;67.40
27671;DHT22;15077;49.704;9.908;2024-03-02T06:11:37;8.90;67.30
27671;DHT22;15077;49.704;9.908;2024-03-02T06:14:05;8.90;67.30
27671;DHT22;15077;49.704;9.908;2024-03-02T06:16:31;8.90;67.30
27671;DHT22;15077;49.704;9.908;2024-03-02T06:18:57;8.90;67.20
27671;DHT22;15077;49.704;9.908;2024-03-02T06:21:24;9.00;67.10
27671;DHT22;15077;49.704;9.908;2024-03-02T06:23:50;9.00;67.10
27671;DHT22;15077;49.704;9.908;2024-03-02T06:26:16;9.00;67.10
27671;DHT22;15077;49.704;9.908;2024-03-02T06:28:42;9.00;67.00
27671;DHT22;15077;49.704;9.908;2024-03-02T06:31:08;9.00;67.00
27671;DHT22;15077;49.704;9.908;2024-03-02T06:33:34;9.00;67.00
27671;DHT22;15077;49.704;9.908;2024-03-02T06:36:00;9.00;66.90
27671;DHT22;15077;49.704;9.908;2024-03-02T06:38:25;9.00;66.90
27671;DHT22;15077;49.704;9.908;2024-03-02T06:40:51;9.10;67.00
27671;DHT22;15077;49.704;9.908;2024-03-02T06:43:17;9.00;66.90
27671;DHT22;15077;49.704;9.908;2024-03-02T06:45:44;9.10;66.90
27671;DHT22;15077;49.704;9.908;2024-03-02T06:48:10;9.10;66.90
27671;DHT22;15077;49.704;9.908;2024-03-02T06:50:35;9.10;66.80
27671;DHT22;15077;49.704;9.908;2024-03-02T06:53:01;9.10;66.90
27671;DHT22;15077;49.704;9.908;2024-03-02T06:55:29;9.10;67.00
27671;DHT22;15077;49.704;9.908;2024-03-02T06:57:56;9.10;67.00
27671;DHT22;15077;49.704;9.908;2024-03-02T07:00:21;9.10;67.00
27671;DHT22;15077;49.704;9.908;2024-03-02T07:02:47;9.10;67.00
27671;DHT22;15077;49.704;9.908;2024-03-02T07:05:12;9.10;67.00
27671;DHT22;15077;49.704;9.908;2024-03-02T07:07:38;9.10;67.00
27671;DHT22;15077;49.704;9.908;2024-03-02T07:10:04;9.10;67.10
27671;DHT22;15077;49.704;9.908;2024-03-02T07:12:30;9.20;67.20
27671;DHT22;15077;49.704;9.908;2024-03-02T07:14:57;9.20;67.20
27671;DHT22;15077;49.704;9.908;2024-03-02T07:17:28;9.30;67.30
27671;DHT22;15077;49.704;9.908;2024-03-02T07:19:54;9.30;67.30
27671;DHT22;15077;49.704;9.908;2024-03-02T07:22:20;9.30;67.40
27671;DHT22;15077;49.704;9.908;2024-03-02T07:24:46;9.40;67.60
27671;DHT22;15077;49.704;9.908;2024-03-02T07:27:12;9.40;67.60
27671;DHT22;15077;49.704;9.908;2024-03-02T07:29:38;9.40;67.60
27671;DHT22;15077;49.704;9.908;2024-03-02T07:32:04;9.50;67.70
27671;DHT22;15077;49.704;9.908;2024-03-02T07:34:30;9.50;67.70
27671;DHT22;15077;49.704;9.908;2024-03-02T07:36:56;9.60;67.80
27671;DHT22;15077;49.704;9.908;2024-03-02T07:39:22;9.60;67.90
27671;DHT22;15077;49.704;9.908;2024-03-02T07:41:48;9.70;67.90
27671;DHT22;15077;49.704;9.908;2024-03-02T07:44:14;9.70;68.50
27671;DHT22;15077;49.704;9.908;2024-03-02T07:46:43;9.80;68.00
27671;DHT22;15077;49.704;9.908;2024-03-02T07:49:09;9.80;68.00
27671;DHT22;15077;49.704;9.908;2024-03-02T07:51:35;9.80;67.90
27671;DHT22;15077;49.704;9.908;2024-03-02T07:54:01;9.90;68.00
27671;DHT22;15077;49.704;9.908;2024-03-02T07:56:27;9.90;68.00
27671;DHT22;15077;49.704;9.908;2024-03-02T07:58:53;10.00;68.10
27671;DHT22;15077;49.704;9.908;2024-03-02T08:01:19;10.10;68.10
27671;DHT22;15077;49.704;9.908;2024-03-02T08:03:45;10.10;68.10
27671;DHT22;15077;49.704;9.908;2024-03-02T08:06:15;10.20;68.10
27671;DHT22;15077;49.704;9.908;2024-03-02T08:08:46;10.20;68.00
27671;DHT22;15077;49.704;9.908;2024-03-02T08:11:12;10.30;68.20
27671;DHT22;15077;49.704;9.908;2024-03-02T08:13:38;10.30;68.50
27671;DHT22;15077;49.704;9.908;2024-03-02T08:16:04;10.30;68.30
27671;DHT22;15077;49.704;9.908;2024-03-02T08:18:33;10.30;68.40
27671;DHT22;15077;49.704;9.908;2024-03-02T08:20:58;10.40;68.50
27671;DHT22;15077;49.704;9.908;2024-03-02T08:23:26;10.40;68.40
27671;DHT22;15077;49.704;9.908;2024-03-02T08:25:52;10.40;68.60
27671;DHT22;15077;49.704;9.908;2024-03-02T08:28:17;10.50;68.50
27671;DHT22;15077;49.704;9.908;2024-03-02T08:30:43;10.50;68.70
27671;DHT22;15077;49.704;9.908;2024-03-02T08:33:08;10.50;68.70
27671;DHT22;15077;49.704;9.908;2024-03-02T08:35:34;10.60;68.80
27671;DHT22;15077;49.704;9.908;2024-03-02T08:38:03;10.60;68.90
27671;DHT22;15077;49.704;9.908;2024-03-02T08:40:29;10.70;68.90
27671;DHT22;15077;49.704;9.908;2024-03-02T08:42:55;10.70;68.80
27671;DHT22;15077;49.704;9.908;2024-03-02T08:45:21;10.80;68.90
27671;DHT22;15077;49.704;9.908;2024-03-02T08:47:47;10.80;69.00
27671;DHT22;15077;49.704;9.908;2024-03-02T08:50:12;10.90;69.00
27671;DHT22;15077;49.704;9.908;2024-03-02T08:52:38;10.90;69.10
27671;DHT22;15077;49.704;9.908;2024-03-02T08:55:04;11.00;69.10
27671;DHT22;15077;49.704;9.908;2024-03-02T08:57:30;11.10;69.30
27671;DHT22;15077;49.704;9.908;2024-03-02T08:59:56;11.10;69.70
27671;DHT22;15077;49.704;9.908;2024-03-02T09:02:22;11.10;69.50
27671;DHT22;15077;49.704;9.908;2024-03-02T09:04:48;11.20;69.60
27671;DHT22;15077;49.704;9.908;2024-03-02T09:07:14;11.20;69.30
27671;DHT22;15077;49.704;9.908;2024-03-02T09:09:40;11.30;69.50
27671;DHT22;15077;49.704;9.908;2024-03-02T09:12:06;11.30;69.40
27671;DHT22;15077;49.704;9.908;2024-03-02T09:14:32;11.40;69.40
27671;DHT22;15077;49.704;9.908;2024-03-02T09:16:58;11.40;69.30
27671;DHT22;15077;49.704;9.908;2024-03-02T09:19:24;11.50;69.10
27671;DHT22;15077;49.704;9.908;2024-03-02T09:21:50;11.50;69.20
27671;DHT22;15077;49.704;9.908;2024-03-02T09:24:15;11.60;69.30
27671;DHT22;15077;49.704;9.908;2024-03-02T09:26:41;11.70;69.40
27671;DHT22;15077;49.704;9.908;2024-03-02T09:29:07;11.70;69.30
27671;DHT22;15077;49.704;9.908;2024-03-02T09:31:32;11.80;69.20
27671;DHT22;15077;49.704;9.908;2024-03-02T09:33:58;11.90;69.10
27671;DHT22;15077;49.704;9.908;2024-03-02T09:36:24;12.00;69.10
27671;DHT22;15077;49.704;9.908;2024-03-02T09:38:49;12.00;69.00
27671;DHT22;15077;49.704;9.908;2024-03-02T09:41:15;12.10;69.00
27671;DHT22;15077;49.704;9.908;2024-03-02T09:43:41;12.20;68.90
27671;DHT22;15077;49.704;9.908;2024-03-02T09:46:08;12.30;69.40
27671;DHT22;15077;49.704;9.908;2024-03-02T09:48:35;12.40;68.90
27671;DHT22;15077;49.704;9.908;2024-03-02T09:51:00;12.50;68.90
27671;DHT22;15077;49.704;9.908;2024-03-02T09:53:29;12.60;69.00
27671;DHT22;15077;49.704;9.908;2024-03-02T09:55:56;12.60;69.00
27671;DHT22;15077;49.704;9.908;2024-03-02T09:58:22;12.70;69.10
27671;DHT22;15077;49.704;9.908;2024-03-02T10:00:48;12.90;69.30
27671;DHT22;15077;49.704;9.908;2024-03-02T10:03:14;13.00;69.50
27671;DHT22;15077;49.704;9.908;2024-03-02T10:05:40;13.20;69.60
27671;DHT22;15077;49.704;9.908;2024-03-02T10:08:06;13.40;69.70
27671;DHT22;15077;49.704;9.908;2024-03-02T10:10:35;13.50;69.30
27671;DHT22;15077;49.704;9.908;2024-03-02T10:13:05;13.70;69.30
27671;DHT22;15077;49.704;9.908;2024-03-02T10:15:32;13.90;69.50
27671;DHT22;15077;49.704;9.908;2024-03-02T10:17:58;14.20;70.00
27671;DHT22;15077;49.704;9.908;2024-03-02T10:20:27;14.40;69.50
27671;DHT22;15077;49.704;9.908;2024-03-02T10:23:13;14.70;69.50
27671;DHT22;15077;49.704;9.908;2024-03-02T10:25:41;14.90;68.70
27671;DHT22;15077;49.704;9.908;2024-03-02T10:28:08;15.00;68.00
27671;DHT22;15077;49.704;9.908;2024-03-02T10:30:33;15.10;67.70
27671;DHT22;15077;49.704;9.908;2024-03-02T10:33:03;15.20;67.50
27671;DHT22;15077;49.704;9.908;2024-03-02T10:35:30;15.30;67.10
27671;DHT22;15077;49.704;9.908;2024-03-02T10:38:00;15.40;66.90
27671;DHT22;15077;49.704;9.908;2024-03-02T10:40:26;15.40;66.80
27671;DHT22;15077;49.704;9.908;2024-03-02T10:42:52;15.50;66.50
27671;DHT22;15077;49.704;9.908;2024-03-02T10:45:19;15.50;66.40
27671;DHT22;15077;49.704;9.908;2024-03-02T10:47:47;15.60;66.10
27671;DHT22;15077;49.704;9.908;2024-03-02T10:50:13;15.60;65.70
27671;DHT22;15077;49.704;9.908;2024-03-02T10:52:39;15.60;65.80
27671;DHT22;15077;49.704;9.908;2024-03-02T10:55:11;15.70;65.80
27671;DHT22;15077;49.704;9.908;2024-03-02T10:57:55;15.80;65.60
27671;DHT22;15077;49.704;9.908;2024-03-02T11:00:25;15.70;65.20
27671;DHT22;15077;49.704;9.908;2024-03-02T11:02:58;15.80;65.30
27671;DHT22;15077;49.704;9.908;2024-03-02T11:05:36;15.80;65.20
27671;DHT22;15077;49.704;9.908;2024-03-02T11:08:06;15.90;65.50
27671;DHT22;15077;49.704;9.908;2024-03-02T11:10:34;16.00;65.50
27671;DHT22;15077;49.704;9.908;2024-03-02T11:13:13;16.00;65.30
27671;DHT22;15077;49.704;9.908;2024-03-02T11:15:40;16.20;65.30
27671;DHT22;15077;49.704;9.908;2024-03-02T11:18:09;16.30;65.30
27671;DHT22;15077;49.704;9.908;2024-03-02T11:20:39;16.40;65.20
27671;DHT22;15077;49.704;9.908;2024-03-02T11:23:06;16.50;65.20
27671;DHT22;15077;49.704;9.908;2024-03-02T11:25:33;16.60;65.10
27671;DHT22;15077;49.704;9.908;2024-03-02T11:27:59;16.80;64.80
27671;DHT22;15077;49.704;9.908;2024-03-02T11:33:01;17.10;65.00
27671;DHT22;15077;49.704;9.908;2024-03-02T11:35:52;17.30;64.40
27671;DHT22;15077;49.704;9.908;2024-03-02T11:38:18;17.40;63.90
27671;DHT22;15077;49.704;9.908;2024-03-02T11:40:44;17.50;63.60
27671;DHT22;15077;49.704;9.908;2024-03-02T11:43:10;17.70;63.20
27671;DHT22;15077;49.704;9.908;2024-03-02T11:45:36;17.70;63.00
27671;DHT22;15077;49.704;9.908;2024-03-02T11:48:08;17.90;62.70
27671;DHT22;15077;49.704;9.908;2024-03-02T11:50:41;18.00;62.70
27671;DHT22;15077;49.704;9.908;2024-03-02T11:53:15;18.10;62.20
27671;DHT22;15077;49.704;9.908;2024-03-02T11:55:42;18.30;62.60
27671;DHT22;15077;49.704;9.908;2024-03-02T11:58:14;18.30;62.10
27671;DHT22;15077;49.704;9.908;2024-03-02T12:00:46;18.40;61.40
27671;DHT22;15077;49.704;9.908;2024-03-02T12:03:12;18.50;60.60
27671;DHT22;15077;49.704;9.908;2024-03-02T12:05:39;18.60;60.00
27671;DHT22;15077;49.704;9.908;2024-03-02T12:08:05;18.60;60.30
27671;DHT22;15077;49.704;9.908;2024-03-02T12:10:32;18.60;59.80
27671;DHT22;15077;49.704;9.908;2024-03-02T12:13:02;18.60;59.60
27671;DHT22;15077;49.704;9.908;2024-03-02T12:15:30;18.70;59.70
27671;DHT22;15077;49.704;9.908;2024-03-02T12:17:58;18.70;59.40
27671;DHT22;15077;49.704;9.908;2024-03-02T12:20:25;18.70;59.10
27671;DHT22;15077;49.704;9.908;2024-03-02T12:22:54;18.80;58.70
27671;DHT22;15077;49.704;9.908;2024-03-02T12:25:23;18.80;57.50
27671;DHT22;15077;49.704;9.908;2024-03-02T12:27:50;18.80;57.60
27671;DHT22;15077;49.704;9.908;2024-03-02T12:30:17;18.80;57.90
27671;DHT22;15077;49.704;9.908;2024-03-02T12:32:43;18.70;57.50
27671;DHT22;15077;49.704;9.908;2024-03-02T12:35:12;18.70;57.80
27671;DHT22;15077;49.704;9.908;2024-03-02T12:37:44;18.70;58.60
27671;DHT22;15077;49.704;9.908;2024-03-02T12:40:12;18.80;57.70
27671;DHT22;15077;49.704;9.908;2024-03-02T12:42:38;18.80;57.80
27671;DHT22;15077;49.704;9.908;2024-03-02T12:45:05;18.90;57.80
27671;DHT22;15077;49.704;9.908;2024-03-02T12:47:32;19.00;58.00
27671;DHT22;15077;49.704;9.908;2024-03-02T12:49:58;19.00;57.40
27671;DHT22;15077;49.704;9.908;2024-03-02T12:52:24;19.10;57.20
27671;DHT22;15077;49.704;9.908;2024-03-02T12:54:50;19.10;56.00
27671;DHT22;15077;49.704;9.908;2024-03-02T12:57:19;19.20;56.70
27671;DHT22;15077;49.704;9.908;2024-03-02T12:59:45;19.20;55.60
27671;DHT22;15077;49.704;9.908;2024-03-02T13:02:18;19.20;56.30
27671;DHT22;15077;49.704;9.908;2024-03-02T13:04:44;19.30;56.30
27671;DHT22;15077;49.704;9.908;2024-03-02T13:07:10;19.30;55.90
27671;DHT22;15077;49.704;9.908;2024-03-02T13:09:38;19.30;55.90
27671;DHT22;15077;49.704;9.908;2024-03-02T13:12:04;19.30;56.00
27671;DHT22;15077;49.704;9.908;2024-03-02T13:14:35;19.20;56.00
27671;DHT22;15077;49.704;9.908;2024-03-02T13:17:01;19.20;56.20
27671;DHT22;15077;49.704;9.908;2024-03-02T13:19:29;19.20;56.10
27671;DHT22;15077;49.704;9.908;2024-03-02T13:21:56;19.30;56.30
27671;DHT22;15077;49.704;9.908;2024-03-02T13:24:27;19.40;55.90
27671;DHT22;15077;49.704;9.908;2024-03-02T13:26:54;19.40;55.40
27671;DHT22;15077;49.704;9.908;2024-03-02T13:29:22;19.40;55.20
27671;DHT22;15077;49.704;9.908;2024-03-02T13:31:48;19.40;54.90
27671;DHT22;15077;49.704;9.908;2024-03-02T13:34:14;19.40;53.10
27671;DHT22;15077;49.704;9.908;2024-03-02T13:36:39;19.40;52.70
27671;DHT22;15077;49.704;9.908;2024-03-02T13:39:05;19.30;52.40
27671;DHT22;15077;49.704;9.908;2024-03-02T13:41:31;19.30;52.40
27671;DHT22;15077;49.704;9.908;2024-03-02T13:43:57;19.30;52.10
27671;DHT22;15077;49.704;9.908;2024-03-02T13:46:26;19.30;52.80
27671;DHT22;15077;49.704;9.908;2024-03-02T13:48:52;19.30;52.80
27671;DHT22;15077;49.704;9.908;2024-03-02T13:51:18;19.30;52.80
27671;DHT22;15077;49.704;9.908;2024-03-02T13:53:43;19.40;53.10
27671;DHT22;15077;49.704;9.908;2024-03-02T13:56:09;19.40;52.90
27671;DHT22;15077;49.704;9.908;2024-03-02T13:58:35;19.40;52.50
27671;DHT22;15077;49.704;9.908;2024-03-02T14:01:00;19.40;52.80
27671;DHT22;15077;49.704;9.908;2024-03-02T14:03:29;19.50;53.20
27671;DHT22;15077;49.704;9.908;2024-03-02T14:05:55;19.50;53.20
27671;DHT22;15077;49.704;9.908;2024-03-02T14:08:21;19.50;53.20
27671;DHT22;15077;49.704;9.908;2024-03-02T14:10:47;19.50;52.80
27671;DHT22;15077;49.704;9.908;2024-03-02T14:13:12;19.60;52.80
27671;DHT22;15077;49.704;9.908;2024-03-02T14:15:38;19.50;52.80
27671;DHT22;15077;49.704;9.908;2024-03-02T14:18:05;19.60;52.70
27671;DHT22;15077;49.704;9.908;2024-03-02T14:20:31;19.50;53.00
27671;DHT22;15077;49.704;9.908;2024-03-02T14:22:58;19.50;53.40
27671;DHT22;15077;49.704;9.908;2024-03-02T14:25:25;19.50;53.60
27671;DHT22;15077;49.704;9.908;2024-03-02T14:27:50;19.60;53.40
27671;DHT22;15077;49.704;9.908;2024-03-02T14:30:16;19.60;52.90
27671;DHT22;15077;49.704;9.908;2024-03-02T14:32:42;19.60;52.60
27671;DHT22;15077;49.704;9.908;2024-03-02T14:35:09;19.50;52.80
27671;DHT22;15077;49.704;9.908;2024-03-02T14:37:36;19.50;52.90
27671;DHT22;15077;49.704;9.908;2024-03-02T14:40:02;19.50;53.30
27671;DHT22;15077;49.704;9.908;2024-03-02T14:42:31;19.50;53.40
27671;DHT22;15077;49.704;9.908;2024-03-02T14:44:57;19.50;53.30
27671;DHT22;15077;49.704;9.908;2024-03-02T14:47:23;19.40;52.70
27671;DHT22;15077;49.704;9.908;2024-03-02T14:49:50;19.40;52.90
27671;DHT22;15077;49.704;9.908;2024-03-02T14:52:15;19.40;52.90
27671;DHT22;15077;49.704;9.908;2024-03-02T14:54:44;19.30;53.10
27671;DHT22;15077;49.704;9.908;2024-03-02T14:57:09;19.20;53.10
27671;DHT22;15077;49.704;9.908;2024-03-02T14:59:36;19.20;53.20
27671;DHT22;15077;49.704;9.908;2024-03-02T15:02:02;19.20;53.10
27671;DHT22;15077;49.704;9.908;2024-03-02T15:04:28;19.20;53.30
27671;DHT22;15077;49.704;9.908;2024-03-02T15:06:54;19.20;52.80
27671;DHT22;15077;49.704;9.908;2024-03-02T15:09:19;19.20;52.60
27671;DHT22;15077;49.704;9.908;2024-03-02T15:11:45;19.20;52.80
27671;DHT22;15077;49.704;9.908;2024-03-02T15:14:11;19.20;53.20
27671;DHT22;15077;49.704;9.908;2024-03-02T15:16:37;19.20;53.30
27671;DHT22;15077;49.704;9.908;2024-03-02T15:19:02;19.20;53.30
27671;DHT22;15077;49.704;9.908;2024-03-02T15:21:28;19.30;52.80
27671;DHT22;15077;49.704;9.908;2024-03-02T15:23:54;19.30;52.80
27671;DHT22;15077;49.704;9.908;2024-03-02T15:26:20;19.20;52.90
27671;DHT22;15077;49.704;9.908;2024-03-02T15:28:45;19.20;52.90
27671;DHT22;15077;49.704;9.908;2024-03-02T15:31:11;19.20;53.10
27671;DHT22;15077;49.704;9.908;2024-03-02T15:33:36;19.20;53.30
27671;DHT22;15077;49.704;9.908;2024-03-02T15:36:02;19.20;52.70
27671;DHT22;15077;49.704;9.908;2024-03-02T15:38:28;19.20;52.80